Plumtree, Zimbabwe

4:17 PM CAT on September 03, 2015 (GMT +0200)
Francistown | | Change Station
CLOSE
Current Station
Airport
Location: Francistown,
Elevation: 3281 ft
Nearby Weather Stations

Elev 3281 ft 21.16 °S, 27.48 °E | Updated 17 minutes ago

Overcast
Overcast
63 °F
Feels Like 63 °F
N
21
Wind Variable Wind from East

Today
High -- | Low -- °F
--% Chance of Precip.
Yesterday
High -- | Low -- °F
Precip. -- in
6:16 AM 6:00 PM
Waning Gibbous, 70% visible
Pressure 30.18 in
Visibility 6.2 miles
Clouds Overcast 2000 ft
Dew Point 55 °F
Humidity 77%
Rainfall 0.00 in
Snow Depth Not available.
UV 1 out of 12
Pollen Not available.
Air Quality Not available.
Flu Activity Not available.
METAR FBFT 031400Z 10018KT 9999 OVC020 17/13 Q1022
Pressure 30.18 in
Visibility 6.2 miles
Clouds Overcast 2000 ft
Dew Point 55 °F
Humidity 77%
Rainfall 0.00 in
Snow Depth Not available.
UV 1 out of 12
Pollen Not available.
Air Quality Not available.
Flu Activity Not available.
METAR FBFT 031400Z 10018KT 9999 OVC020 17/13 Q1022

10-Day Weather Forecast

×

Almanac

Astronomy

Sep. 03, 2015 Rise Set
Actual Time
Civil Twilight
Nautical Twilight
Astronomical Twilight
Moon
Length of Visible Light
Length of Day
Tomorrow will be .
, % of the Moon is Illuminated

Today's Extremes

Country Highs Country Lows

Community

WunderPhotos

Upload Photos

1,851,959 photos uploaded!

WunderBlogs® & News

Nearby

Air Quality

  Air Quality AQ Index Pollutant
Not available.

Snow Depth

Station Depth Elevation

Earthquake Activity

City Distance Mag. Time & Date
Minimum magnitude displayed is 2.5.

Coastal Water Temperatures

Place Temperature

Stations

Nearby Weather Stations

Station Location Temp. Windchill Dew Point Humidity Wind Precip. Elev Updated Type